»·PEaware :: AAL1004 KAUS-KDFW

AAL1004 :: KAUS-KDFW

FLIGHT INFORMATION

Flight Status: Arrived
Operator:
American Airlines
More flights by this operator :: More flights under this callsign
Pilot: Drew Leevy (13237)
Aircraft: MCDONNELL-DOUGLAS MD-82
(MD82)
More flights by this aircraft type
Origin: KAUS Austin Bergstrom Intl
United States
Destination: KDFW Dallas-Ft Worth Intl
United States
More flights between these airports :: More routes between these airports
Route: ELOEL1 FORSS GUTZZ SOCKK3
File this flight plan on PilotEdge
Remarks:
Altitude:
(Current/Filed)
25,000ft
Speed:
(Current/Filed)
134kts
Departed: 29-Apr-17 05:30 PM
Arrived: 29-Apr-17 06:06 PM
Distance/Time
Traveled:
165nm/0:36
Distance/Time
To Go:
Arrived

Flight Plot

Page will automatically refresh every two minutes.

Flight plan parsing failed; only flown route is shown


Map Options




Map Legend


Flown Route
Filed Route
Departure Airport
Arrival Airport
Navaid (VOR, NDB)
Fix

Horizontal Profiles

Position Reports

Time Latitude Longitude Heading Altitude Ground
Speed
29-Apr-17 17:16 30.201564 -97.669008 20 547ft 0kts
29-Apr-17 17:17 30.201564 -97.669008 20 547ft 0kts
29-Apr-17 17:18 30.201564 -97.669008 20 547ft 0kts
29-Apr-17 17:19 30.201081 -97.669164 349 547ft 3kts
29-Apr-17 17:20 30.200818 -97.668878 289 547ft 0kts
29-Apr-17 17:21 30.200818 -97.668878 289 547ft 0kts
29-Apr-17 17:22 30.200818 -97.668878 289 547ft 0kts
29-Apr-17 17:23 30.200990 -97.669795 272 547ft 11kts
29-Apr-17 17:24 30.202902 -97.673387 356 547ft 20kts
29-Apr-17 17:25 30.209255 -97.674288 345 547ft 25kts
29-Apr-17 17:26 30.213497 -97.677424 265 547ft 16kts
29-Apr-17 17:27 30.203023 -97.679105 178 547ft 31kts
29-Apr-17 17:28 30.198932 -97.673954 87 547ft 24kts
29-Apr-17 17:29 30.191674 -97.673077 179 547ft 31kts
29-Apr-17 17:30 30.183115 -97.672826 178 547ft 34kts
29-Apr-17 17:31 30.180148 -97.678252 278 547ft 7kts
29-Apr-17 17:32 30.189772 -97.678651 357 547ft 139kts
29-Apr-17 17:33 30.238165 -97.685267 340 3576ft 202kts
29-Apr-17 17:34 30.296716 -97.709406 332 7093ft 258kts
29-Apr-17 17:35 30.371556 -97.743977 332 9969ft 313kts
29-Apr-17 17:36 30.451366 -97.783029 339 12780ft 327kts
29-Apr-17 17:37 30.541529 -97.807741 341 15995ft 344kts
29-Apr-17 17:38 30.636540 -97.832388 341 19219ft 359kts
29-Apr-17 17:39 30.734751 -97.857853 340 22433ft 368kts
29-Apr-17 17:40 30.831436 -97.892979 336 25064ft 381kts
29-Apr-17 17:41 30.940693 -97.940992 328 25109ft 444kts
29-Apr-17 17:42 31.050252 -98.005849 328 25102ft 443kts
29-Apr-17 17:43 31.151897 -98.065771 328 25096ft 443kts
29-Apr-17 17:44 31.269179 -98.108317 346 25126ft 454kts
29-Apr-17 17:45 31.392593 -98.134039 348 25122ft 455kts
29-Apr-17 17:46 31.519332 -98.125286 5 25152ft 462kts
29-Apr-17 17:47 31.646316 -98.102371 12 24123ft 467kts
29-Apr-17 17:48 31.761458 -98.030003 29 22448ft 473kts
29-Apr-17 17:49 31.873651 -97.954253 29 20072ft 464kts
29-Apr-17 17:50 31.984549 -97.879736 29 17700ft 456kts
29-Apr-17 17:51 32.092720 -97.807103 30 15353ft 446kts
29-Apr-17 17:52 32.196093 -97.737800 30 13290ft 429kts
29-Apr-17 17:53 32.298719 -97.674168 28 11311ft 412kts
29-Apr-17 17:54 32.395600 -97.611567 41 10144ft 370kts
29-Apr-17 17:55 32.460579 -97.536499 49 10072ft 292kts
29-Apr-17 17:56 32.484667 -97.456371 94 8833ft 251kts
29-Apr-17 17:57 32.490170 -97.380756 92 7688ft 218kts
29-Apr-17 17:58 32.496498 -97.310775 93 6510ft 215kts
29-Apr-17 17:59 32.512831 -97.242544 71 5468ft 223kts
29-Apr-17 18:00 32.540987 -97.177617 71 4700ft 221kts
29-Apr-17 18:01 32.568837 -97.113091 71 4095ft 218kts
29-Apr-17 18:02 32.600997 -97.052425 32 4068ft 238kts
29-Apr-17 18:03 32.668054 -97.053502 0 4079ft 245kts
29-Apr-17 18:04 32.734825 -97.055424 3 3919ft 224kts
29-Apr-17 18:05 32.788169 -97.053539 349 2739ft 164kts
29-Apr-17 18:06 32.826908 -97.054484 353 1501ft 140kts
29-Apr-17 18:07 32.865029 -97.054770 353 983ft 140kts
29-Apr-17 18:08 32.896724 -97.054751 359 612ft 37kts
29-Apr-17 18:09 32.900806 -97.052990 32 612ft 13kts
29-Apr-17 18:10 32.901131 -97.050648 90 612ft 11kts
29-Apr-17 18:11 32.901143 -97.046810 92 612ft 13kts
29-Apr-17 18:12 32.900504 -97.043670 177 612ft 4kts
29-Apr-17 18:13 32.900039 -97.043631 175 612ft 0kts
29-Apr-17 18:14 32.900039 -97.043631 175 612ft 0kts

Navigation Log

Ident Type
Flight plan parsing failed, navigation log unavailable